sensor_id;sensor_type;location;lat;lon;timestamp;pressure;altitude;pressure_sealevel;temperature
14784;BMP180;7483;50.498;12.138;2022-11-15T00:00:27;96927.00;;;6.60
14784;BMP180;7483;50.498;12.138;2022-11-15T00:03:14;97109.00;;;6.60
14784;BMP180;7483;50.498;12.138;2022-11-15T00:06:02;97105.00;;;6.60
14784;BMP180;7483;50.498;12.138;2022-11-15T00:08:49;97106.00;;;6.50
14784;BMP180;7483;50.498;12.138;2022-11-15T00:11:36;97097.00;;;6.60
14784;BMP180;7483;50.498;12.138;2022-11-15T00:14:22;97093.00;;;6.50
14784;BMP180;7483;50.498;12.138;2022-11-15T00:17:11;97091.00;;;6.60
14784;BMP180;7483;50.498;12.138;2022-11-15T00:19:57;97098.00;;;6.60
14784;BMP180;7483;50.498;12.138;2022-11-15T00:22:44;97095.00;;;6.60
14784;BMP180;7483;50.498;12.138;2022-11-15T00:25:31;97061.00;;;6.60
14784;BMP180;7483;50.498;12.138;2022-11-15T00:28:17;97089.00;;;6.60
14784;BMP180;7483;50.498;12.138;2022-11-15T00:31:08;97109.00;;;6.60
14784;BMP180;7483;50.498;12.138;2022-11-15T00:33:56;97096.00;;;6.50
14784;BMP180;7483;50.498;12.138;2022-11-15T00:36:43;97093.00;;;6.50
14784;BMP180;7483;50.498;12.138;2022-11-15T00:39:30;97083.00;;;6.60
14784;BMP180;7483;50.498;12.138;2022-11-15T00:42:18;96892.00;;;6.60
14784;BMP180;7483;50.498;12.138;2022-11-15T00:45:09;96953.00;;;6.60
14784;BMP180;7483;50.498;12.138;2022-11-15T00:47:56;96954.00;;;6.60
14784;BMP180;7483;50.498;12.138;2022-11-15T00:50:44;97081.00;;;6.50
14784;BMP180;7483;50.498;12.138;2022-11-15T00:53:31;97062.00;;;6.50
14784;BMP180;7483;50.498;12.138;2022-11-15T00:56:18;97068.00;;;6.50
14784;BMP180;7483;50.498;12.138;2022-11-15T00:59:05;97062.00;;;6.40
14784;BMP180;7483;50.498;12.138;2022-11-15T01:01:52;97061.00;;;6.40
14784;BMP180;7483;50.498;12.138;2022-11-15T01:04:39;97063.00;;;6.40
14784;BMP180;7483;50.498;12.138;2022-11-15T01:07:27;97060.00;;;6.40
14784;BMP180;7483;50.498;12.138;2022-11-15T01:10:14;97068.00;;;6.30
14784;BMP180;7483;50.498;12.138;2022-11-15T01:13:01;97067.00;;;6.30
14784;BMP180;7483;50.498;12.138;2022-11-15T01:15:48;97062.00;;;6.30
14784;BMP180;7483;50.498;12.138;2022-11-15T01:18:34;97065.00;;;6.30
14784;BMP180;7483;50.498;12.138;2022-11-15T01:21:21;97061.00;;;6.30
14784;BMP180;7483;50.498;12.138;2022-11-15T01:24:12;97058.00;;;6.40
14784;BMP180;7483;50.498;12.138;2022-11-15T01:26:59;96943.00;;;6.40
14784;BMP180;7483;50.498;12.138;2022-11-15T01:29:46;97055.00;;;6.40
14784;BMP180;7483;50.498;12.138;2022-11-15T01:32:32;97054.00;;;6.30
14784;BMP180;7483;50.498;12.138;2022-11-15T01:35:19;97043.00;;;6.30
14784;BMP180;7483;50.498;12.138;2022-11-15T01:38:06;97058.00;;;6.30
14784;BMP180;7483;50.498;12.138;2022-11-15T01:40:54;97052.00;;;6.30
14784;BMP180;7483;50.498;12.138;2022-11-15T01:43:40;97054.00;;;6.30
14784;BMP180;7483;50.498;12.138;2022-11-15T01:46:31;97062.00;;;6.30
14784;BMP180;7483;50.498;12.138;2022-11-15T01:49:21;97053.00;;;6.20
14784;BMP180;7483;50.498;12.138;2022-11-15T01:52:13;97055.00;;;6.20
14784;BMP180;7483;50.498;12.138;2022-11-15T01:55:07;97040.00;;;6.20
14784;BMP180;7483;50.498;12.138;2022-11-15T01:57:59;97037.00;;;6.20
14784;BMP180;7483;50.498;12.138;2022-11-15T02:00:49;97048.00;;;6.20
14784;BMP180;7483;50.498;12.138;2022-11-15T02:03:42;97013.00;;;6.20
14784;BMP180;7483;50.498;12.138;2022-11-15T02:06:30;97036.00;;;6.10
14784;BMP180;7483;50.498;12.138;2022-11-15T02:09:17;97038.00;;;6.10
14784;BMP180;7483;50.498;12.138;2022-11-15T02:12:07;97018.00;;;6.10
14784;BMP180;7483;50.498;12.138;2022-11-15T02:14:56;97024.00;;;6.00
14784;BMP180;7483;50.498;12.138;2022-11-15T02:18:03;97047.00;;;6.00
14784;BMP180;7483;50.498;12.138;2022-11-15T02:21:10;97030.00;;;6.00
14784;BMP180;7483;50.498;12.138;2022-11-15T02:24:31;97028.00;;;6.00
14784;BMP180;7483;50.498;12.138;2022-11-15T02:27:57;97026.00;;;5.00
14784;BMP180;7483;50.498;12.138;2022-11-15T02:30:52;97010.00;;;5.90
14784;BMP180;7483;50.498;12.138;2022-11-15T02:33:51;97014.00;;;5.80
14784;BMP180;7483;50.498;12.138;2022-11-15T02:36:46;97007.00;;;5.80
14784;BMP180;7483;50.498;12.138;2022-11-15T02:39:43;96993.00;;;5.70
14784;BMP180;7483;50.498;12.138;2022-11-15T02:42:40;96992.00;;;5.70
14784;BMP180;7483;50.498;12.138;2022-11-15T02:46:04;96980.00;;;5.70
14784;BMP180;7483;50.498;12.138;2022-11-15T02:48:53;96987.00;;;5.70
14784;BMP180;7483;50.498;12.138;2022-11-15T02:51:42;96980.00;;;5.70
14784;BMP180;7483;50.498;12.138;2022-11-15T02:54:31;96971.00;;;5.70
14784;BMP180;7483;50.498;12.138;2022-11-15T02:57:27;96974.00;;;5.70
14784;BMP180;7483;50.498;12.138;2022-11-15T03:00:19;96973.00;;;5.70
14784;BMP180;7483;50.498;12.138;2022-11-15T03:03:31;96980.00;;;5.70
14784;BMP180;7483;50.498;12.138;2022-11-15T03:06:35;96973.00;;;5.70
14784;BMP180;7483;50.498;12.138;2022-11-15T03:09:34;96960.00;;;5.70
14784;BMP180;7483;50.498;12.138;2022-11-15T03:12:28;96975.00;;;5.70
14784;BMP180;7483;50.498;12.138;2022-11-15T03:15:22;96972.00;;;5.70
14784;BMP180;7483;50.498;12.138;2022-11-15T03:18:20;96980.00;;;5.70
14784;BMP180;7483;50.498;12.138;2022-11-15T03:21:10;96978.00;;;5.70
14784;BMP180;7483;50.498;12.138;2022-11-15T03:24:03;96967.00;;;5.60
14784;BMP180;7483;50.498;12.138;2022-11-15T03:26:53;96971.00;;;5.60
14784;BMP180;7483;50.498;12.138;2022-11-15T03:29:50;96967.00;;;5.60
14784;BMP180;7483;50.498;12.138;2022-11-15T03:32:45;96971.00;;;5.70
14784;BMP180;7483;50.498;12.138;2022-11-15T03:35:39;96960.00;;;5.70
14784;BMP180;7483;50.498;12.138;2022-11-15T03:38:31;96976.00;;;5.70
14784;BMP180;7483;50.498;12.138;2022-11-15T03:41:25;96960.00;;;5.70
14784;BMP180;7483;50.498;12.138;2022-11-15T03:44:21;96948.00;;;5.80
14784;BMP180;7483;50.498;12.138;2022-11-15T03:47:18;96951.00;;;5.80
14784;BMP180;7483;50.498;12.138;2022-11-15T03:50:13;96961.00;;;5.80
14784;BMP180;7483;50.498;12.138;2022-11-15T03:53:01;96959.00;;;5.80
14784;BMP180;7483;50.498;12.138;2022-11-15T03:55:48;96945.00;;;5.80
14784;BMP180;7483;50.498;12.138;2022-11-15T03:58:35;96937.00;;;5.90
14784;BMP180;7483;50.498;12.138;2022-11-15T04:01:22;96935.00;;;5.90
14784;BMP180;7483;50.498;12.138;2022-11-15T04:04:09;96944.00;;;5.80
14784;BMP180;7483;50.498;12.138;2022-11-15T04:06:55;96943.00;;;5.90
14784;BMP180;7483;50.498;12.138;2022-11-15T04:09:43;96938.00;;;5.90
14784;BMP180;7483;50.498;12.138;2022-11-15T04:12:48;96939.00;;;5.90
14784;BMP180;7483;50.498;12.138;2022-11-15T04:15:35;96946.00;;;5.90
14784;BMP180;7483;50.498;12.138;2022-11-15T04:18:22;96942.00;;;5.90
14784;BMP180;7483;50.498;12.138;2022-11-15T04:21:09;96940.00;;;5.80
14784;BMP180;7483;50.498;12.138;2022-11-15T04:24:14;96940.00;;;5.80
14784;BMP180;7483;50.498;12.138;2022-11-15T04:27:03;96946.00;;;5.80
14784;BMP180;7483;50.498;12.138;2022-11-15T04:29:49;96938.00;;;5.70
14784;BMP180;7483;50.498;12.138;2022-11-15T04:32:36;96929.00;;;5.70
14784;BMP180;7483;50.498;12.138;2022-11-15T04:35:23;96933.00;;;5.70
14784;BMP180;7483;50.498;12.138;2022-11-15T04:38:11;96923.00;;;5.70
14784;BMP180;7483;50.498;12.138;2022-11-15T04:40:59;96931.00;;;5.60
14784;BMP180;7483;50.498;12.138;2022-11-15T04:43:47;96910.00;;;5.60
14784;BMP180;7483;50.498;12.138;2022-11-15T04:46:34;96914.00;;;5.60
14784;BMP180;7483;50.498;12.138;2022-11-15T04:49:21;96922.00;;;5.60
14784;BMP180;7483;50.498;12.138;2022-11-15T04:52:08;96916.00;;;5.70
14784;BMP180;7483;50.498;12.138;2022-11-15T04:54:54;96928.00;;;5.70
14784;BMP180;7483;50.498;12.138;2022-11-15T04:57:41;96918.00;;;5.70
14784;BMP180;7483;50.498;12.138;2022-11-15T05:00:30;96927.00;;;5.70
14784;BMP180;7483;50.498;12.138;2022-11-15T05:03:17;96883.00;;;5.70
14784;BMP180;7483;50.498;12.138;2022-11-15T05:06:21;96922.00;;;5.70
14784;BMP180;7483;50.498;12.138;2022-11-15T05:09:08;96916.00;;;5.70
14784;BMP180;7483;50.498;12.138;2022-11-15T05:11:55;96928.00;;;5.70
14784;BMP180;7483;50.498;12.138;2022-11-15T05:14:42;96915.00;;;5.60
14784;BMP180;7483;50.498;12.138;2022-11-15T05:17:30;96916.00;;;5.70
14784;BMP180;7483;50.498;12.138;2022-11-15T05:20:19;96867.00;;;5.50
14784;BMP180;7483;50.498;12.138;2022-11-15T05:23:07;96922.00;;;5.60
14784;BMP180;7483;50.498;12.138;2022-11-15T05:25:59;96915.00;;;5.50
14784;BMP180;7483;50.498;12.138;2022-11-15T05:28:54;96915.00;;;5.60
14784;BMP180;7483;50.498;12.138;2022-11-15T05:31:41;96911.00;;;5.60
14784;BMP180;7483;50.498;12.138;2022-11-15T05:34:30;96914.00;;;5.60
14784;BMP180;7483;50.498;12.138;2022-11-15T05:37:19;96915.00;;;5.70
14784;BMP180;7483;50.498;12.138;2022-11-15T05:40:10;96702.00;;;5.70
14784;BMP180;7483;50.498;12.138;2022-11-15T05:43:12;96582.00;;;5.60
14784;BMP180;7483;50.498;12.138;2022-11-15T05:46:01;96722.00;;;5.40
14784;BMP180;7483;50.498;12.138;2022-11-15T05:48:53;96673.00;;;5.60
14784;BMP180;7483;50.498;12.138;2022-11-15T05:51:46;96791.00;;;5.60
14784;BMP180;7483;50.498;12.138;2022-11-15T05:54:35;96913.00;;;5.60
14784;BMP180;7483;50.498;12.138;2022-11-15T05:57:23;96935.00;;;5.60
14784;BMP180;7483;50.498;12.138;2022-11-15T06:00:12;96712.00;;;5.60
14784;BMP180;7483;50.498;12.138;2022-11-15T06:02:59;96449.00;;;5.60
14784;BMP180;7483;50.498;12.138;2022-11-15T06:05:46;96749.00;;;5.60
14784;BMP180;7483;50.498;12.138;2022-11-15T06:08:34;96743.00;;;5.60
14784;BMP180;7483;50.498;12.138;2022-11-15T06:11:21;96741.00;;;5.60
14784;BMP180;7483;50.498;12.138;2022-11-15T06:14:07;96756.00;;;5.60
14784;BMP180;7483;50.498;12.138;2022-11-15T06:16:54;96764.00;;;5.60
14784;BMP180;7483;50.498;12.138;2022-11-15T06:19:42;96930.00;;;5.60
14784;BMP180;7483;50.498;12.138;2022-11-15T06:22:29;96917.00;;;5.60
14784;BMP180;7483;50.498;12.138;2022-11-15T06:25:17;96918.00;;;5.50
14784;BMP180;7483;50.498;12.138;2022-11-15T06:28:04;96904.00;;;5.50
14784;BMP180;7483;50.498;12.138;2022-11-15T06:30:51;96912.00;;;5.50
14784;BMP180;7483;50.498;12.138;2022-11-15T06:33:38;96916.00;;;5.50
14784;BMP180;7483;50.498;12.138;2022-11-15T06:36:25;96701.00;;;5.50
14784;BMP180;7483;50.498;12.138;2022-11-15T06:39:12;96702.00;;;5.50
14784;BMP180;7483;50.498;12.138;2022-11-15T06:42:00;96702.00;;;5.50
14784;BMP180;7483;50.498;12.138;2022-11-15T06:44:47;96715.00;;;5.50
14784;BMP180;7483;50.498;12.138;2022-11-15T06:47:34;96706.00;;;5.50
14784;BMP180;7483;50.498;12.138;2022-11-15T06:50:21;96723.00;;;5.40
14784;BMP180;7483;50.498;12.138;2022-11-15T06:53:08;96753.00;;;5.50
14784;BMP180;7483;50.498;12.138;2022-11-15T06:55:59;96909.00;;;5.60
14784;BMP180;7483;50.498;12.138;2022-11-15T06:58:47;96906.00;;;5.60
14784;BMP180;7483;50.498;12.138;2022-11-15T07:01:34;96891.00;;;5.60
14784;BMP180;7483;50.498;12.138;2022-11-15T07:04:21;96886.00;;;5.50
14784;BMP180;7483;50.498;12.138;2022-11-15T07:07:08;96883.00;;;5.60
14784;BMP180;7483;50.498;12.138;2022-11-15T07:09:54;96894.00;;;5.60
14784;BMP180;7483;50.498;12.138;2022-11-15T07:12:41;96893.00;;;5.60
14784;BMP180;7483;50.498;12.138;2022-11-15T07:15:29;96887.00;;;5.60
14784;BMP180;7483;50.498;12.138;2022-11-15T07:18:16;96900.00;;;5.60
14784;BMP180;7483;50.498;12.138;2022-11-15T07:21:05;96901.00;;;5.60
14784;BMP180;7483;50.498;12.138;2022-11-15T07:23:52;96883.00;;;5.70
14784;BMP180;7483;50.498;12.138;2022-11-15T07:26:39;96881.00;;;5.70
14784;BMP180;7483;50.498;12.138;2022-11-15T07:29:25;96877.00;;;5.80
14784;BMP180;7483;50.498;12.138;2022-11-15T07:32:13;96891.00;;;5.80
14784;BMP180;7483;50.498;12.138;2022-11-15T07:35:00;96886.00;;;5.90
14784;BMP180;7483;50.498;12.138;2022-11-15T07:37:54;96883.00;;;5.90
14784;BMP180;7483;50.498;12.138;2022-11-15T07:40:41;96876.00;;;6.00
14784;BMP180;7483;50.498;12.138;2022-11-15T07:43:28;96880.00;;;6.00
14784;BMP180;7483;50.498;12.138;2022-11-15T07:46:18;96885.00;;;6.10
14784;BMP180;7483;50.498;12.138;2022-11-15T07:49:06;96888.00;;;6.20
14784;BMP180;7483;50.498;12.138;2022-11-15T07:51:53;96884.00;;;6.20
14784;BMP180;7483;50.498;12.138;2022-11-15T07:54:39;96892.00;;;6.20
14784;BMP180;7483;50.498;12.138;2022-11-15T07:57:26;96889.00;;;6.30
14784;BMP180;7483;50.498;12.138;2022-11-15T08:00:14;96882.00;;;6.40
14784;BMP180;7483;50.498;12.138;2022-11-15T08:03:03;96880.00;;;6.20
14784;BMP180;7483;50.498;12.138;2022-11-15T08:05:52;96881.00;;;6.50
14784;BMP180;7483;50.498;12.138;2022-11-15T08:08:39;96884.00;;;6.50
14784;BMP180;7483;50.498;12.138;2022-11-15T08:11:26;96871.00;;;6.60
14784;BMP180;7483;50.498;12.138;2022-11-15T08:14:12;96880.00;;;6.60
14784;BMP180;7483;50.498;12.138;2022-11-15T08:16:59;96875.00;;;6.70
14784;BMP180;7483;50.498;12.138;2022-11-15T08:19:46;96886.00;;;6.90
14784;BMP180;7483;50.498;12.138;2022-11-15T08:22:34;96881.00;;;7.00
14784;BMP180;7483;50.498;12.138;2022-11-15T08:25:22;96890.00;;;7.10
14784;BMP180;7483;50.498;12.138;2022-11-15T08:28:11;96872.00;;;7.10
14784;BMP180;7483;50.498;12.138;2022-11-15T08:30:58;96875.00;;;7.20
14784;BMP180;7483;50.498;12.138;2022-11-15T08:33:45;96873.00;;;7.30
14784;BMP180;7483;50.498;12.138;2022-11-15T08:36:32;96865.00;;;7.40
14784;BMP180;7483;50.498;12.138;2022-11-15T08:39:33;96865.00;;;7.50
14784;BMP180;7483;50.498;12.138;2022-11-15T08:42:20;96862.00;;;7.60
14784;BMP180;7483;50.498;12.138;2022-11-15T08:45:09;96867.00;;;7.70
14784;BMP180;7483;50.498;12.138;2022-11-15T08:47:57;96809.00;;;7.70
14784;BMP180;7483;50.498;12.138;2022-11-15T08:50:43;96852.00;;;7.90
14784;BMP180;7483;50.498;12.138;2022-11-15T08:53:30;96852.00;;;7.90
14784;BMP180;7483;50.498;12.138;2022-11-15T08:56:18;96842.00;;;8.00
14784;BMP180;7483;50.498;12.138;2022-11-15T08:59:05;96847.00;;;8.00
14784;BMP180;7483;50.498;12.138;2022-11-15T09:01:52;96843.00;;;8.20
14784;BMP180;7483;50.498;12.138;2022-11-15T09:04:40;96845.00;;;8.30
14784;BMP180;7483;50.498;12.138;2022-11-15T09:07:27;96844.00;;;8.40
14784;BMP180;7483;50.498;12.138;2022-11-15T09:10:16;96840.00;;;8.40
14784;BMP180;7483;50.498;12.138;2022-11-15T09:13:04;96824.00;;;8.50
14784;BMP180;7483;50.498;12.138;2022-11-15T09:15:50;96835.00;;;8.60
14784;BMP180;7483;50.498;12.138;2022-11-15T09:18:37;96835.00;;;8.70
14784;BMP180;7483;50.498;12.138;2022-11-15T09:21:24;96829.00;;;8.80
14784;BMP180;7483;50.498;12.138;2022-11-15T09:24:11;96830.00;;;8.90
14784;BMP180;7483;50.498;12.138;2022-11-15T09:26:57;96835.00;;;8.90
14784;BMP180;7483;50.498;12.138;2022-11-15T09:29:45;96822.00;;;8.90
14784;BMP180;7483;50.498;12.138;2022-11-15T09:32:32;96837.00;;;9.00
14784;BMP180;7483;50.498;12.138;2022-11-15T09:35:24;96837.00;;;9.10
14784;BMP180;7483;50.498;12.138;2022-11-15T09:38:10;96829.00;;;9.30
14784;BMP180;7483;50.498;12.138;2022-11-15T09:41:29;96823.00;;;9.30
14784;BMP180;7483;50.498;12.138;2022-11-15T09:44:40;96823.00;;;9.40
14784;BMP180;7483;50.498;12.138;2022-11-15T09:47:59;96834.00;;;9.60
14784;BMP180;7483;50.498;12.138;2022-11-15T09:51:14;96819.00;;;9.70
14784;BMP180;7483;50.498;12.138;2022-11-15T09:53:52;96819.00;;;9.80
14784;BMP180;7483;50.498;12.138;2022-11-15T09:56:44;96805.00;;;9.90
14784;BMP180;7483;50.498;12.138;2022-11-15T09:59:41;96797.00;;;9.90
14784;BMP180;7483;50.498;12.138;2022-11-15T10:02:36;96808.00;;;10.00
14784;BMP180;7483;50.498;12.138;2022-11-15T10:05:11;96792.00;;;10.10
14784;BMP180;7483;50.498;12.138;2022-11-15T10:07:48;96773.00;;;10.10
14784;BMP180;7483;50.498;12.138;2022-11-15T10:10:28;96773.00;;;10.20
14784;BMP180;7483;50.498;12.138;2022-11-15T10:12:58;96797.00;;;10.30
14784;BMP180;7483;50.498;12.138;2022-11-15T10:15:27;96749.00;;;10.40
14784;BMP180;7483;50.498;12.138;2022-11-15T10:18:17;96784.00;;;10.40
14784;BMP180;7483;50.498;12.138;2022-11-15T10:20:50;96792.00;;;10.50
14784;BMP180;7483;50.498;12.138;2022-11-15T10:23:22;96781.00;;;10.60
14784;BMP180;7483;50.498;12.138;2022-11-15T10:25:53;96771.00;;;10.70
14784;BMP180;7483;50.498;12.138;2022-11-15T10:28:26;96782.00;;;10.70
14784;BMP180;7483;50.498;12.138;2022-11-15T10:30:58;96776.00;;;10.70
14784;BMP180;7483;50.498;12.138;2022-11-15T10:33:34;96784.00;;;10.80
14784;BMP180;7483;50.498;12.138;2022-11-15T10:36:21;96771.00;;;10.90
14784;BMP180;7483;50.498;12.138;2022-11-15T10:38:57;96760.00;;;10.90
14784;BMP180;7483;50.498;12.138;2022-11-15T10:41:37;96739.00;;;11.00
14784;BMP180;7483;50.498;12.138;2022-11-15T10:44:23;96768.00;;;11.10
14784;BMP180;7483;50.498;12.138;2022-11-15T10:47:21;96755.00;;;11.20
14784;BMP180;7483;50.498;12.138;2022-11-15T10:49:58;96705.00;;;11.30
14784;BMP180;7483;50.498;12.138;2022-11-15T10:52:28;96754.00;;;11.30
14784;BMP180;7483;50.498;12.138;2022-11-15T10:55:03;96727.00;;;11.40
14784;BMP180;7483;50.498;12.138;2022-11-15T10:57:36;96751.00;;;11.40
14784;BMP180;7483;50.498;12.138;2022-11-15T11:00:27;96749.00;;;11.50
14784;BMP180;7483;50.498;12.138;2022-11-15T11:03:01;96754.00;;;11.50
14784;BMP180;7483;50.498;12.138;2022-11-15T11:05:35;96743.00;;;11.40
14784;BMP180;7483;50.498;12.138;2022-11-15T11:08:22;96736.00;;;11.70
14784;BMP180;7483;50.498;12.138;2022-11-15T11:10:55;96726.00;;;11.80
14784;BMP180;7483;50.498;12.138;2022-11-15T11:13:32;96740.00;;;11.90
14784;BMP180;7483;50.498;12.138;2022-11-15T11:19:22;96734.00;;;12.20
14784;BMP180;7483;50.498;12.138;2022-11-15T11:22:03;96697.00;;;12.20
14784;BMP180;7483;50.498;12.138;2022-11-15T11:24:38;96657.00;;;12.30
14784;BMP180;7483;50.498;12.138;2022-11-15T11:27:21;96674.00;;;12.50
14784;BMP180;7483;50.498;12.138;2022-11-15T11:30:06;96717.00;;;12.40
14784;BMP180;7483;50.498;12.138;2022-11-15T11:32:50;96716.00;;;12.70
14784;BMP180;7483;50.498;12.138;2022-11-15T11:35:29;96695.00;;;12.90
14784;BMP180;7483;50.498;12.138;2022-11-15T11:38:24;96697.00;;;14.90
14784;BMP180;7483;50.498;12.138;2022-11-15T11:41:10;96676.00;;;17.80
14784;BMP180;7483;50.498;12.138;2022-11-15T11:43:59;96720.00;;;19.30
14784;BMP180;7483;50.498;12.138;2022-11-15T11:46:48;96711.00;;;19.60
14784;BMP180;7483;50.498;12.138;2022-11-15T11:49:25;96711.00;;;19.20
14784;BMP180;7483;50.498;12.138;2022-11-15T11:52:03;96698.00;;;19.30
14784;BMP180;7483;50.498;12.138;2022-11-15T11:54:46;96699.00;;;19.30
14784;BMP180;7483;50.498;12.138;2022-11-15T11:57:32;96705.00;;;19.10
14784;BMP180;7483;50.498;12.138;2022-11-15T12:00:14;96692.00;;;19.10
14784;BMP180;7483;50.498;12.138;2022-11-15T12:02:50;96690.00;;;19.50
14784;BMP180;7483;50.498;12.138;2022-11-15T12:05:28;96693.00;;;20.90
14784;BMP180;7483;50.498;12.138;2022-11-15T12:08:08;96576.00;;;22.00
14784;BMP180;7483;50.498;12.138;2022-11-15T12:10:40;96701.00;;;21.70
14784;BMP180;7483;50.498;12.138;2022-11-15T12:13:17;96594.00;;;21.60
14784;BMP180;7483;50.498;12.138;2022-11-15T12:15:55;96607.00;;;21.20
14784;BMP180;7483;50.498;12.138;2022-11-15T12:18:24;96680.00;;;21.80
14784;BMP180;7483;50.498;12.138;2022-11-15T12:20:57;96685.00;;;21.70
14784;BMP180;7483;50.498;12.138;2022-11-15T12:23:30;96699.00;;;19.60
14784;BMP180;7483;50.498;12.138;2022-11-15T12:26:06;96679.00;;;19.90
14784;BMP180;7483;50.498;12.138;2022-11-15T12:28:42;96667.00;;;19.70
14784;BMP180;7483;50.498;12.138;2022-11-15T12:31:38;96657.00;;;19.70
14784;BMP180;7483;50.498;12.138;2022-11-15T12:34:43;96689.00;;;20.00
14784;BMP180;7483;50.498;12.138;2022-11-15T12:37:47;96679.00;;;20.40
14784;BMP180;7483;50.498;12.138;2022-11-15T12:40:35;96676.00;;;19.50
14784;BMP180;7483;50.498;12.138;2022-11-15T12:43:39;96668.00;;;18.80
14784;BMP180;7483;50.498;12.138;2022-11-15T12:46:18;96671.00;;;19.20
14784;BMP180;7483;50.498;12.138;2022-11-15T12:48:53;96658.00;;;19.30
14784;BMP180;7483;50.498;12.138;2022-11-15T12:55:01;96667.00;;;19.00
14784;BMP180;7483;50.498;12.138;2022-11-15T12:57:47;96659.00;;;19.00
14784;BMP180;7483;50.498;12.138;2022-11-15T13:00:43;96672.00;;;18.70
14784;BMP180;7483;50.498;12.138;2022-11-15T13:03:28;96663.00;;;18.30
14784;BMP180;7483;50.498;12.138;2022-11-15T13:06:05;96671.00;;;18.20
14784;BMP180;7483;50.498;12.138;2022-11-15T13:08:48;96660.00;;;17.60
14784;BMP180;7483;50.498;12.138;2022-11-15T13:11:51;96660.00;;;17.50
14784;BMP180;7483;50.498;12.138;2022-11-15T13:14:43;96658.00;;;17.30
14784;BMP180;7483;50.498;12.138;2022-11-15T13:17:27;96659.00;;;17.40
14784;BMP180;7483;50.498;12.138;2022-11-15T13:20:24;96656.00;;;17.70
14784;BMP180;7483;50.498;12.138;2022-11-15T13:23:02;96649.00;;;18.10
14784;BMP180;7483;50.498;12.138;2022-11-15T13:26:10;96653.00;;;18.20
14784;BMP180;7483;50.498;12.138;2022-11-15T13:28:45;96650.00;;;17.80
14784;BMP180;7483;50.498;12.138;2022-11-15T13:31:35;96659.00;;;18.20
14784;BMP180;7483;50.498;12.138;2022-11-15T13:34:30;96649.00;;;18.40
14784;BMP180;7483;50.498;12.138;2022-11-15T13:37:35;96648.00;;;18.40
14784;BMP180;7483;50.498;12.138;2022-11-15T13:40:23;96643.00;;;18.20
14784;BMP180;7483;50.498;12.138;2022-11-15T13:42:51;96637.00;;;18.20
14784;BMP180;7483;50.498;12.138;2022-11-15T13:45:21;96638.00;;;18.50
14784;BMP180;7483;50.498;12.138;2022-11-15T13:47:55;96639.00;;;18.70
14784;BMP180;7483;50.498;12.138;2022-11-15T13:50:28;96632.00;;;18.70
14784;BMP180;7483;50.498;12.138;2022-11-15T13:53:03;96635.00;;;18.50
14784;BMP180;7483;50.498;12.138;2022-11-15T13:55:32;96632.00;;;18.00
14784;BMP180;7483;50.498;12.138;2022-11-15T13:58:03;96638.00;;;17.30
14784;BMP180;7483;50.498;12.138;2022-11-15T14:00:38;96634.00;;;16.70
14784;BMP180;7483;50.498;12.138;2022-11-15T14:03:15;96631.00;;;16.30
14784;BMP180;7483;50.498;12.138;2022-11-15T14:06:07;96630.00;;;16.10
14784;BMP180;7483;50.498;12.138;2022-11-15T14:08:39;96630.00;;;16.20
14784;BMP180;7483;50.498;12.138;2022-11-15T14:11:13;96622.00;;;16.30
14784;BMP180;7483;50.498;12.138;2022-11-15T14:14:02;96618.00;;;16.20
14784;BMP180;7483;50.498;12.138;2022-11-15T14:16:37;96614.00;;;16.00
14784;BMP180;7483;50.498;12.138;2022-11-15T14:19:09;96616.00;;;15.70
14784;BMP180;7483;50.498;12.138;2022-11-15T14:24:46;96609.00;;;15.20
14784;BMP180;7483;50.498;12.138;2022-11-15T14:27:24;96612.00;;;15.00
14784;BMP180;7483;50.498;12.138;2022-11-15T14:29:52;96600.00;;;14.70
14784;BMP180;7483;50.498;12.138;2022-11-15T14:32:24;96605.00;;;14.60
14784;BMP180;7483;50.498;12.138;2022-11-15T14:34:56;96600.00;;;14.30
14784;BMP180;7483;50.498;12.138;2022-11-15T14:37:27;96596.00;;;14.20
14784;BMP180;7483;50.498;12.138;2022-11-15T14:39:55;96592.00;;;14.00
14784;BMP180;7483;50.498;12.138;2022-11-15T14:42:24;96584.00;;;13.80
14784;BMP180;7483;50.498;12.138;2022-11-15T14:44:52;96586.00;;;13.70
14784;BMP180;7483;50.498;12.138;2022-11-15T14:47:22;96587.00;;;13.60
14784;BMP180;7483;50.498;12.138;2022-11-15T14:49:50;96577.00;;;13.50
14784;BMP180;7483;50.498;12.138;2022-11-15T14:52:26;96569.00;;;13.50
14784;BMP180;7483;50.498;12.138;2022-11-15T14:55:00;96562.00;;;13.40
14784;BMP180;7483;50.498;12.138;2022-11-15T14:57:29;96554.00;;;13.30
14784;BMP180;7483;50.498;12.138;2022-11-15T14:59:58;96546.00;;;13.10
14784;BMP180;7483;50.498;12.138;2022-11-15T15:02:41;96535.00;;;12.80
14784;BMP180;7483;50.498;12.138;2022-11-15T15:05:16;96536.00;;;12.70
14784;BMP180;7483;50.498;12.138;2022-11-15T15:07:45;96525.00;;;12.60
14784;BMP180;7483;50.498;12.138;2022-11-15T15:10:16;96523.00;;;12.50
14784;BMP180;7483;50.498;12.138;2022-11-15T15:13:05;96513.00;;;12.50
14784;BMP180;7483;50.498;12.138;2022-11-15T15:15:36;96524.00;;;12.50
14784;BMP180;7483;50.498;12.138;2022-11-15T15:18:06;96516.00;;;12.40
14784;BMP180;7483;50.498;12.138;2022-11-15T15:20:38;96530.00;;;12.40
14784;BMP180;7483;50.498;12.138;2022-11-15T15:23:15;96524.00;;;12.30
14784;BMP180;7483;50.498;12.138;2022-11-15T15:25:44;96522.00;;;12.30
14784;BMP180;7483;50.498;12.138;2022-11-15T15:28:13;96529.00;;;12.10
14784;BMP180;7483;50.498;12.138;2022-11-15T15:30:41;96520.00;;;12.10
14784;BMP180;7483;50.498;12.138;2022-11-15T15:33:11;96523.00;;;11.90
14784;BMP180;7483;50.498;12.138;2022-11-15T15:35:40;96518.00;;;11.90
14784;BMP180;7483;50.498;12.138;2022-11-15T15:38:11;96522.00;;;11.70
14784;BMP180;7483;50.498;12.138;2022-11-15T15:40:39;96519.00;;;11.60
14784;BMP180;7483;50.498;12.138;2022-11-15T15:43:08;96522.00;;;11.60
14784;BMP180;7483;50.498;12.138;2022-11-15T15:45:38;96520.00;;;11.50
14784;BMP180;7483;50.498;12.138;2022-11-15T15:48:11;96510.00;;;11.40
14784;BMP180;7483;50.498;12.138;2022-11-15T15:50:41;96507.00;;;11.30
14784;BMP180;7483;50.498;12.138;2022-11-15T15:53:11;96511.00;;;11.10
14784;BMP180;7483;50.498;12.138;2022-11-15T15:55:39;96519.00;;;11.10
14784;BMP180;7483;50.498;12.138;2022-11-15T15:58:08;96528.00;;;11.00
14784;BMP180;7483;50.498;12.138;2022-11-15T16:00:36;96527.00;;;10.90
14784;BMP180;7483;50.498;12.138;2022-11-15T16:03:05;96523.00;;;10.80
14784;BMP180;7483;50.498;12.138;2022-11-15T16:05:35;96521.00;;;10.80
14784;BMP180;7483;50.498;12.138;2022-11-15T16:08:04;96519.00;;;10.80
14784;BMP180;7483;50.498;12.138;2022-11-15T16:10:33;96530.00;;;10.70